sensor_id;sensor_type;location;lat;lon;timestamp;temperature;humidity
17887;DHT22;9069;52.044;7.472;2023-05-19T00:01:59;13.60;65.80
17887;DHT22;9069;52.044;7.472;2023-05-19T00:04:26;13.60;66.70
17887;DHT22;9069;52.044;7.472;2023-05-19T00:06:53;13.60;66.10
17887;DHT22;9069;52.044;7.472;2023-05-19T00:09:20;13.50;66.20
17887;DHT22;9069;52.044;7.472;2023-05-19T00:11:47;13.50;66.30
17887;DHT22;9069;52.044;7.472;2023-05-19T00:14:14;13.50;66.40
17887;DHT22;9069;52.044;7.472;2023-05-19T00:16:42;13.50;66.40
17887;DHT22;9069;52.044;7.472;2023-05-19T00:19:08;13.40;66.50
17887;DHT22;9069;52.044;7.472;2023-05-19T00:21:36;13.40;66.60
17887;DHT22;9069;52.044;7.472;2023-05-19T00:24:06;13.40;67.00
17887;DHT22;9069;52.044;7.472;2023-05-19T00:26:33;13.40;67.00
17887;DHT22;9069;52.044;7.472;2023-05-19T00:29:04;13.40;67.20
17887;DHT22;9069;52.044;7.472;2023-05-19T00:31:31;13.30;67.40
17887;DHT22;9069;52.044;7.472;2023-05-19T00:34:00;13.30;67.50
17887;DHT22;9069;52.044;7.472;2023-05-19T00:36:27;13.30;67.60
17887;DHT22;9069;52.044;7.472;2023-05-19T00:38:54;13.30;67.80
17887;DHT22;9069;52.044;7.472;2023-05-19T00:41:21;13.30;68.10
17887;DHT22;9069;52.044;7.472;2023-05-19T00:43:49;13.20;68.40
17887;DHT22;9069;52.044;7.472;2023-05-19T00:46:17;13.20;68.70
17887;DHT22;9069;52.044;7.472;2023-05-19T00:48:44;13.20;68.90
17887;DHT22;9069;52.044;7.472;2023-05-19T00:51:12;13.10;68.80
17887;DHT22;9069;52.044;7.472;2023-05-19T00:53:43;13.10;69.10
17887;DHT22;9069;52.044;7.472;2023-05-19T00:56:14;13.10;69.10
17887;DHT22;9069;52.044;7.472;2023-05-19T00:58:44;13.10;68.90
17887;DHT22;9069;52.044;7.472;2023-05-19T01:01:11;13.00;69.00
17887;DHT22;9069;52.044;7.472;2023-05-19T01:03:40;13.00;69.40
17887;DHT22;9069;52.044;7.472;2023-05-19T01:06:08;13.00;69.90
17887;DHT22;9069;52.044;7.472;2023-05-19T01:08:37;13.00;69.90
17887;DHT22;9069;52.044;7.472;2023-05-19T01:11:05;13.00;70.10
17887;DHT22;9069;52.044;7.472;2023-05-19T01:13:33;12.90;70.20
17887;DHT22;9069;52.044;7.472;2023-05-19T01:16:11;12.90;70.30
17887;DHT22;9069;52.044;7.472;2023-05-19T01:18:51;12.90;71.10
17887;DHT22;9069;52.044;7.472;2023-05-19T01:21:39;12.90;70.80
17887;DHT22;9069;52.044;7.472;2023-05-19T01:30:29;12.80;71.90
17887;DHT22;9069;52.044;7.472;2023-05-19T01:33:02;12.70;72.20
17887;DHT22;9069;52.044;7.472;2023-05-19T01:35:30;12.70;71.40
17887;DHT22;9069;52.044;7.472;2023-05-19T01:37:59;12.70;71.80
17887;DHT22;9069;52.044;7.472;2023-05-19T01:40:27;12.70;71.80
17887;DHT22;9069;52.044;7.472;2023-05-19T01:42:57;12.60;71.90
17887;DHT22;9069;52.044;7.472;2023-05-19T01:45:29;12.60;72.10
17887;DHT22;9069;52.044;7.472;2023-05-19T01:47:58;12.60;72.20
17887;DHT22;9069;52.044;7.472;2023-05-19T01:50:26;12.50;72.30
17887;DHT22;9069;52.044;7.472;2023-05-19T01:52:53;12.50;72.40
17887;DHT22;9069;52.044;7.472;2023-05-19T01:55:20;12.50;72.70
17887;DHT22;9069;52.044;7.472;2023-05-19T01:57:54;12.50;72.80
17887;DHT22;9069;52.044;7.472;2023-05-19T02:00:40;12.40;73.20
17887;DHT22;9069;52.044;7.472;2023-05-19T02:09:05;12.40;73.70
17887;DHT22;9069;52.044;7.472;2023-05-19T02:11:35;12.40;74.00
17887;DHT22;9069;52.044;7.472;2023-05-19T02:14:09;12.40;73.40
17887;DHT22;9069;52.044;7.472;2023-05-19T02:16:41;12.30;74.00
17887;DHT22;9069;52.044;7.472;2023-05-19T02:19:26;12.30;73.90
17887;DHT22;9069;52.044;7.472;2023-05-19T02:21:54;12.30;74.80
17887;DHT22;9069;52.044;7.472;2023-05-19T02:24:22;12.30;73.90
17887;DHT22;9069;52.044;7.472;2023-05-19T02:26:49;12.30;74.30
17887;DHT22;9069;52.044;7.472;2023-05-19T02:29:20;12.30;74.40
17887;DHT22;9069;52.044;7.472;2023-05-19T02:31:49;12.20;74.50
17887;DHT22;9069;52.044;7.472;2023-05-19T02:34:16;12.20;74.50
17887;DHT22;9069;52.044;7.472;2023-05-19T02:36:43;12.20;74.60
17887;DHT22;9069;52.044;7.472;2023-05-19T02:39:10;12.20;74.90
17887;DHT22;9069;52.044;7.472;2023-05-19T02:41:38;12.20;75.00
17887;DHT22;9069;52.044;7.472;2023-05-19T02:44:04;12.20;75.20
17887;DHT22;9069;52.044;7.472;2023-05-19T02:46:32;12.20;75.10
17887;DHT22;9069;52.044;7.472;2023-05-19T02:48:59;12.10;75.10
17887;DHT22;9069;52.044;7.472;2023-05-19T02:51:26;12.10;75.10
17887;DHT22;9069;52.044;7.472;2023-05-19T02:53:53;12.10;75.10
17887;DHT22;9069;52.044;7.472;2023-05-19T02:56:20;12.20;75.20
17887;DHT22;9069;52.044;7.472;2023-05-19T02:58:47;12.10;75.20
17887;DHT22;9069;52.044;7.472;2023-05-19T03:01:14;12.10;75.30
17887;DHT22;9069;52.044;7.472;2023-05-19T03:03:41;12.10;75.40
17887;DHT22;9069;52.044;7.472;2023-05-19T03:06:08;12.10;75.40
17887;DHT22;9069;52.044;7.472;2023-05-19T03:08:35;12.10;75.40
17887;DHT22;9069;52.044;7.472;2023-05-19T03:11:02;12.10;75.60
17887;DHT22;9069;52.044;7.472;2023-05-19T03:13:29;12.10;75.70
17887;DHT22;9069;52.044;7.472;2023-05-19T03:15:56;12.00;75.70
17887;DHT22;9069;52.044;7.472;2023-05-19T03:18:30;12.00;75.60
17887;DHT22;9069;52.044;7.472;2023-05-19T03:20:57;12.00;76.20
17887;DHT22;9069;52.044;7.472;2023-05-19T03:23:24;12.00;75.70
17887;DHT22;9069;52.044;7.472;2023-05-19T03:25:52;12.00;75.80
17887;DHT22;9069;52.044;7.472;2023-05-19T03:28:21;12.00;75.80
17887;DHT22;9069;52.044;7.472;2023-05-19T03:30:48;11.90;75.70
17887;DHT22;9069;52.044;7.472;2023-05-19T03:33:18;11.90;75.80
17887;DHT22;9069;52.044;7.472;2023-05-19T03:35:45;11.90;75.80
17887;DHT22;9069;52.044;7.472;2023-05-19T03:38:13;11.90;76.10
17887;DHT22;9069;52.044;7.472;2023-05-19T03:40:47;11.90;76.10
17887;DHT22;9069;52.044;7.472;2023-05-19T03:43:14;11.90;76.00
17887;DHT22;9069;52.044;7.472;2023-05-19T03:45:50;11.80;76.20
17887;DHT22;9069;52.044;7.472;2023-05-19T03:48:43;11.80;76.30
17887;DHT22;9069;52.044;7.472;2023-05-19T03:51:28;11.80;76.10
17887;DHT22;9069;52.044;7.472;2023-05-19T03:54:02;11.80;76.10
17887;DHT22;9069;52.044;7.472;2023-05-19T03:56:29;11.80;76.10
17887;DHT22;9069;52.044;7.472;2023-05-19T03:58:56;11.80;76.20
17887;DHT22;9069;52.044;7.472;2023-05-19T04:01:23;11.80;76.40
17887;DHT22;9069;52.044;7.472;2023-05-19T04:03:50;11.80;76.30
17887;DHT22;9069;52.044;7.472;2023-05-19T04:06:17;11.80;76.50
17887;DHT22;9069;52.044;7.472;2023-05-19T04:08:44;11.80;76.50
17887;DHT22;9069;52.044;7.472;2023-05-19T04:11:11;11.80;76.40
17887;DHT22;9069;52.044;7.472;2023-05-19T04:13:38;11.80;76.50
17887;DHT22;9069;52.044;7.472;2023-05-19T04:16:05;11.80;76.60
17887;DHT22;9069;52.044;7.472;2023-05-19T04:18:32;11.80;76.80
17887;DHT22;9069;52.044;7.472;2023-05-19T04:20:59;11.80;76.80
17887;DHT22;9069;52.044;7.472;2023-05-19T04:23:27;11.80;76.90
17887;DHT22;9069;52.044;7.472;2023-05-19T04:25:54;11.80;77.00
17887;DHT22;9069;52.044;7.472;2023-05-19T04:28:22;11.80;77.10
17887;DHT22;9069;52.044;7.472;2023-05-19T04:30:49;11.80;77.10
17887;DHT22;9069;52.044;7.472;2023-05-19T04:33:17;11.90;77.20
17887;DHT22;9069;52.044;7.472;2023-05-19T04:35:45;11.90;77.10
17887;DHT22;9069;52.044;7.472;2023-05-19T04:38:12;11.90;77.20
17887;DHT22;9069;52.044;7.472;2023-05-19T04:40:39;12.00;77.30
17887;DHT22;9069;52.044;7.472;2023-05-19T04:43:07;12.10;77.30
17887;DHT22;9069;52.044;7.472;2023-05-19T04:45:34;12.10;77.40
17887;DHT22;9069;52.044;7.472;2023-05-19T04:48:03;12.20;77.50
17887;DHT22;9069;52.044;7.472;2023-05-19T04:50:30;12.30;77.40
17887;DHT22;9069;52.044;7.472;2023-05-19T04:52:59;12.50;77.80
17887;DHT22;9069;52.044;7.472;2023-05-19T04:55:26;12.60;77.60
17887;DHT22;9069;52.044;7.472;2023-05-19T04:57:53;12.70;77.50
17887;DHT22;9069;52.044;7.472;2023-05-19T05:00:21;12.90;77.50
17887;DHT22;9069;52.044;7.472;2023-05-19T05:02:53;13.00;77.10
17887;DHT22;9069;52.044;7.472;2023-05-19T05:05:24;13.20;76.80
17887;DHT22;9069;52.044;7.472;2023-05-19T05:07:51;13.30;76.70
17887;DHT22;9069;52.044;7.472;2023-05-19T05:10:20;13.50;76.20
17887;DHT22;9069;52.044;7.472;2023-05-19T05:12:48;13.70;76.00
17887;DHT22;9069;52.044;7.472;2023-05-19T05:15:15;13.80;75.40
17887;DHT22;9069;52.044;7.472;2023-05-19T05:17:44;14.00;74.80
17887;DHT22;9069;52.044;7.472;2023-05-19T05:20:12;14.10;74.30
17887;DHT22;9069;52.044;7.472;2023-05-19T05:22:40;14.20;74.00
17887;DHT22;9069;52.044;7.472;2023-05-19T05:25:08;14.30;73.60
17887;DHT22;9069;52.044;7.472;2023-05-19T05:27:36;14.40;73.10
17887;DHT22;9069;52.044;7.472;2023-05-19T05:30:05;14.50;72.70
17887;DHT22;9069;52.044;7.472;2023-05-19T05:32:32;14.60;72.60
17887;DHT22;9069;52.044;7.472;2023-05-19T05:35:01;14.70;72.30
17887;DHT22;9069;52.044;7.472;2023-05-19T05:37:30;14.70;72.10
17887;DHT22;9069;52.044;7.472;2023-05-19T05:39:57;14.80;71.80
17887;DHT22;9069;52.044;7.472;2023-05-19T05:42:23;14.80;71.60
17887;DHT22;9069;52.044;7.472;2023-05-19T05:44:52;14.90;71.30
17887;DHT22;9069;52.044;7.472;2023-05-19T05:47:19;14.90;71.00
17887;DHT22;9069;52.044;7.472;2023-05-19T05:49:46;14.90;71.00
17887;DHT22;9069;52.044;7.472;2023-05-19T05:52:17;15.00;71.10
17887;DHT22;9069;52.044;7.472;2023-05-19T05:54:48;15.00;71.10
17887;DHT22;9069;52.044;7.472;2023-05-19T05:57:18;15.10;71.10
17887;DHT22;9069;52.044;7.472;2023-05-19T05:59:44;15.20;71.20
17887;DHT22;9069;52.044;7.472;2023-05-19T06:02:13;15.20;71.10
17887;DHT22;9069;52.044;7.472;2023-05-19T06:04:40;15.30;71.20
17887;DHT22;9069;52.044;7.472;2023-05-19T06:07:07;15.40;71.40
17887;DHT22;9069;52.044;7.472;2023-05-19T06:09:36;15.50;71.50
17887;DHT22;9069;52.044;7.472;2023-05-19T06:12:04;15.60;71.60
17887;DHT22;9069;52.044;7.472;2023-05-19T06:14:37;15.80;71.70
17887;DHT22;9069;52.044;7.472;2023-05-19T06:17:33;15.90;71.30
17887;DHT22;9069;52.044;7.472;2023-05-19T06:20:01;16.10;70.80
17887;DHT22;9069;52.044;7.472;2023-05-19T06:22:29;16.30;70.40
17887;DHT22;9069;52.044;7.472;2023-05-19T06:24:56;16.50;70.70
17887;DHT22;9069;52.044;7.472;2023-05-19T06:27:23;16.70;70.80
17887;DHT22;9069;52.044;7.472;2023-05-19T06:29:50;16.80;70.50
17887;DHT22;9069;52.044;7.472;2023-05-19T06:32:18;17.10;70.20
17887;DHT22;9069;52.044;7.472;2023-05-19T06:34:44;17.30;70.10
17887;DHT22;9069;52.044;7.472;2023-05-19T06:37:11;17.50;69.70
17887;DHT22;9069;52.044;7.472;2023-05-19T06:39:40;17.70;69.40
17887;DHT22;9069;52.044;7.472;2023-05-19T06:42:07;17.90;68.90
17887;DHT22;9069;52.044;7.472;2023-05-19T06:44:54;18.10;68.10
17887;DHT22;9069;52.044;7.472;2023-05-19T06:47:21;18.40;67.80
17887;DHT22;9069;52.044;7.472;2023-05-19T06:49:50;18.60;66.80
17887;DHT22;9069;52.044;7.472;2023-05-19T06:52:23;18.80;66.50
17887;DHT22;9069;52.044;7.472;2023-05-19T06:54:51;19.00;66.80
17887;DHT22;9069;52.044;7.472;2023-05-19T06:57:18;19.20;67.00
17887;DHT22;9069;52.044;7.472;2023-05-19T06:59:44;19.40;66.60
17887;DHT22;9069;52.044;7.472;2023-05-19T07:02:12;19.60;66.00
17887;DHT22;9069;52.044;7.472;2023-05-19T07:04:39;19.90;66.00
17887;DHT22;9069;52.044;7.472;2023-05-19T07:07:07;20.10;64.40
17887;DHT22;9069;52.044;7.472;2023-05-19T07:09:34;20.40;63.80
17887;DHT22;9069;52.044;7.472;2023-05-19T07:12:02;20.60;63.10
17887;DHT22;9069;52.044;7.472;2023-05-19T07:14:29;20.80;62.90
17887;DHT22;9069;52.044;7.472;2023-05-19T07:16:56;21.00;62.40
17887;DHT22;9069;52.044;7.472;2023-05-19T07:19:23;21.20;62.40
17887;DHT22;9069;52.044;7.472;2023-05-19T07:21:52;21.40;62.60
17887;DHT22;9069;52.044;7.472;2023-05-19T07:24:20;21.70;61.90
17887;DHT22;9069;52.044;7.472;2023-05-19T07:26:47;21.90;61.20
17887;DHT22;9069;52.044;7.472;2023-05-19T07:29:14;22.10;60.60
17887;DHT22;9069;52.044;7.472;2023-05-19T07:31:41;22.20;60.00
17887;DHT22;9069;52.044;7.472;2023-05-19T07:34:08;22.40;60.40
17887;DHT22;9069;52.044;7.472;2023-05-19T07:36:35;22.60;59.80
17887;DHT22;9069;52.044;7.472;2023-05-19T07:39:02;22.80;59.30
17887;DHT22;9069;52.044;7.472;2023-05-19T07:41:29;23.00;59.00
17887;DHT22;9069;52.044;7.472;2023-05-19T07:43:55;23.20;58.90
17887;DHT22;9069;52.044;7.472;2023-05-19T07:46:22;23.40;58.50
17887;DHT22;9069;52.044;7.472;2023-05-19T07:48:49;23.60;57.90
17887;DHT22;9069;52.044;7.472;2023-05-19T07:51:16;23.80;57.80
17887;DHT22;9069;52.044;7.472;2023-05-19T07:53:42;24.10;57.90
17887;DHT22;9069;52.044;7.472;2023-05-19T07:56:09;24.30;57.30
17887;DHT22;9069;52.044;7.472;2023-05-19T07:58:36;24.60;56.90
17887;DHT22;9069;52.044;7.472;2023-05-19T08:01:03;24.80;56.20
17887;DHT22;9069;52.044;7.472;2023-05-19T08:03:30;25.00;55.00
17887;DHT22;9069;52.044;7.472;2023-05-19T08:05:57;25.30;54.90
17887;DHT22;9069;52.044;7.472;2023-05-19T08:08:24;25.50;54.90
17887;DHT22;9069;52.044;7.472;2023-05-19T08:10:51;25.80;53.90
17887;DHT22;9069;52.044;7.472;2023-05-19T08:13:17;26.00;53.70
17887;DHT22;9069;52.044;7.472;2023-05-19T08:15:44;26.20;53.00
17887;DHT22;9069;52.044;7.472;2023-05-19T08:18:11;26.40;52.10
17887;DHT22;9069;52.044;7.472;2023-05-19T08:20:38;26.60;51.40
17887;DHT22;9069;52.044;7.472;2023-05-19T08:23:05;26.70;51.00
17887;DHT22;9069;52.044;7.472;2023-05-19T08:25:32;26.90;50.80
17887;DHT22;9069;52.044;7.472;2023-05-19T08:27:58;27.00;50.40
17887;DHT22;9069;52.044;7.472;2023-05-19T08:30:25;27.20;49.90
17887;DHT22;9069;52.044;7.472;2023-05-19T08:32:52;27.30;49.30
17887;DHT22;9069;52.044;7.472;2023-05-19T08:35:19;27.40;49.10
17887;DHT22;9069;52.044;7.472;2023-05-19T08:37:46;27.40;48.40
17887;DHT22;9069;52.044;7.472;2023-05-19T08:40:16;27.60;47.80
17887;DHT22;9069;52.044;7.472;2023-05-19T08:42:46;27.60;47.20
17887;DHT22;9069;52.044;7.472;2023-05-19T08:45:13;27.70;47.10
17887;DHT22;9069;52.044;7.472;2023-05-19T08:47:41;27.70;46.70
17887;DHT22;9069;52.044;7.472;2023-05-19T08:50:10;27.70;47.30
17887;DHT22;9069;52.044;7.472;2023-05-19T08:53:02;27.80;46.90
17887;DHT22;9069;52.044;7.472;2023-05-19T08:55:39;27.90;45.20
17887;DHT22;9069;52.044;7.472;2023-05-19T08:58:07;27.90;45.00
17887;DHT22;9069;52.044;7.472;2023-05-19T09:00:34;27.90;45.30
17887;DHT22;9069;52.044;7.472;2023-05-19T09:03:03;27.90;45.50
17887;DHT22;9069;52.044;7.472;2023-05-19T09:05:48;27.80;45.80
17887;DHT22;9069;52.044;7.472;2023-05-19T09:08:16;27.70;46.20
17887;DHT22;9069;52.044;7.472;2023-05-19T09:10:43;27.70;46.30
17887;DHT22;9069;52.044;7.472;2023-05-19T09:13:10;27.70;45.90
17887;DHT22;9069;52.044;7.472;2023-05-19T09:15:38;27.60;45.50
17887;DHT22;9069;52.044;7.472;2023-05-19T09:18:11;27.50;44.80
17887;DHT22;9069;52.044;7.472;2023-05-19T09:20:43;27.30;44.90
17887;DHT22;9069;52.044;7.472;2023-05-19T09:23:14;27.10;44.90
17887;DHT22;9069;52.044;7.472;2023-05-19T09:25:49;26.80;44.30
17887;DHT22;9069;52.044;7.472;2023-05-19T09:28:30;26.60;44.80
17887;DHT22;9069;52.044;7.472;2023-05-19T09:33:37;26.10;45.60
17887;DHT22;9069;52.044;7.472;2023-05-19T09:36:05;26.00;45.90
17887;DHT22;9069;52.044;7.472;2023-05-19T09:38:34;25.90;45.70
17887;DHT22;9069;52.044;7.472;2023-05-19T09:41:02;25.80;45.40
17887;DHT22;9069;52.044;7.472;2023-05-19T09:43:30;25.70;45.80
17887;DHT22;9069;52.044;7.472;2023-05-19T09:46:05;25.70;46.30
17887;DHT22;9069;52.044;7.472;2023-05-19T09:48:33;25.70;45.60
17887;DHT22;9069;52.044;7.472;2023-05-19T09:51:01;25.70;45.90
17887;DHT22;9069;52.044;7.472;2023-05-19T09:53:29;25.70;46.10
17887;DHT22;9069;52.044;7.472;2023-05-19T09:55:57;25.80;45.90
17887;DHT22;9069;52.044;7.472;2023-05-19T09:58:25;25.80;46.00
17887;DHT22;9069;52.044;7.472;2023-05-19T10:00:52;25.80;45.80
17887;DHT22;9069;52.044;7.472;2023-05-19T10:03:24;25.90;46.40
17887;DHT22;9069;52.044;7.472;2023-05-19T10:05:52;26.10;46.50
17887;DHT22;9069;52.044;7.472;2023-05-19T10:08:19;26.20;45.50
17887;DHT22;9069;52.044;7.472;2023-05-19T10:10:47;26.40;46.10
17887;DHT22;9069;52.044;7.472;2023-05-19T10:13:15;26.60;45.30
17887;DHT22;9069;52.044;7.472;2023-05-19T10:15:42;26.70;44.50
17887;DHT22;9069;52.044;7.472;2023-05-19T10:18:25;26.70;44.10
17887;DHT22;9069;52.044;7.472;2023-05-19T10:20:53;26.70;43.20
17887;DHT22;9069;52.044;7.472;2023-05-19T10:23:20;26.50;43.10
17887;DHT22;9069;52.044;7.472;2023-05-19T10:25:50;26.40;43.70
17887;DHT22;9069;52.044;7.472;2023-05-19T10:28:18;26.20;44.10
17887;DHT22;9069;52.044;7.472;2023-05-19T10:30:53;26.20;43.60
17887;DHT22;9069;52.044;7.472;2023-05-19T10:33:35;26.10;43.80
17887;DHT22;9069;52.044;7.472;2023-05-19T10:36:30;26.20;44.00
17887;DHT22;9069;52.044;7.472;2023-05-19T10:39:05;26.20;43.90
17887;DHT22;9069;52.044;7.472;2023-05-19T10:46:38;26.50;44.60
17887;DHT22;9069;52.044;7.472;2023-05-19T10:49:07;26.50;44.40
17887;DHT22;9069;52.044;7.472;2023-05-19T10:51:34;26.50;44.30
17887;DHT22;9069;52.044;7.472;2023-05-19T10:54:02;26.50;43.50
17887;DHT22;9069;52.044;7.472;2023-05-19T10:56:38;26.50;43.40
17887;DHT22;9069;52.044;7.472;2023-05-19T10:59:34;26.40;43.20
17887;DHT22;9069;52.044;7.472;2023-05-19T11:02:03;26.30;42.90
17887;DHT22;9069;52.044;7.472;2023-05-19T11:04:48;26.20;43.50
17887;DHT22;9069;52.044;7.472;2023-05-19T11:07:19;26.10;42.80
17887;DHT22;9069;52.044;7.472;2023-05-19T11:09:53;26.00;43.90
17887;DHT22;9069;52.044;7.472;2023-05-19T11:12:20;25.90;42.70
17887;DHT22;9069;52.044;7.472;2023-05-19T11:14:54;25.70;42.70
17887;DHT22;9069;52.044;7.472;2023-05-19T11:17:23;25.50;42.80
17887;DHT22;9069;52.044;7.472;2023-05-19T11:19:55;25.30;42.90
17887;DHT22;9069;52.044;7.472;2023-05-19T11:22:25;25.10;42.80
17887;DHT22;9069;52.044;7.472;2023-05-19T11:24:55;25.00;43.50
17887;DHT22;9069;52.044;7.472;2023-05-19T11:27:32;24.80;43.40
17887;DHT22;9069;52.044;7.472;2023-05-19T11:30:18;24.70;44.20
17887;DHT22;9069;52.044;7.472;2023-05-19T11:32:48;24.50;44.00
17887;DHT22;9069;52.044;7.472;2023-05-19T11:35:16;24.40;44.40
17887;DHT22;9069;52.044;7.472;2023-05-19T11:37:48;24.40;44.80
17887;DHT22;9069;52.044;7.472;2023-05-19T11:40:17;24.30;45.00
17887;DHT22;9069;52.044;7.472;2023-05-19T11:42:43;24.30;45.30
17887;DHT22;9069;52.044;7.472;2023-05-19T11:45:10;24.20;45.30
17887;DHT22;9069;52.044;7.472;2023-05-19T11:47:37;24.10;45.00
17887;DHT22;9069;52.044;7.472;2023-05-19T11:50:24;24.00;45.30
17887;DHT22;9069;52.044;7.472;2023-05-19T11:52:52;24.00;45.70
17887;DHT22;9069;52.044;7.472;2023-05-19T11:55:20;23.90;46.00
17887;DHT22;9069;52.044;7.472;2023-05-19T11:57:59;23.80;45.60
17887;DHT22;9069;52.044;7.472;2023-05-19T12:00:38;23.80;46.90
17887;DHT22;9069;52.044;7.472;2023-05-19T12:03:06;23.70;45.90
17887;DHT22;9069;52.044;7.472;2023-05-19T12:05:37;23.70;46.50
17887;DHT22;9069;52.044;7.472;2023-05-19T12:08:09;23.60;46.70
17887;DHT22;9069;52.044;7.472;2023-05-19T12:10:37;23.60;46.90
17887;DHT22;9069;52.044;7.472;2023-05-19T12:13:05;23.50;46.90
17887;DHT22;9069;52.044;7.472;2023-05-19T12:15:34;23.50;47.10
17887;DHT22;9069;52.044;7.472;2023-05-19T12:18:02;23.50;46.70
17887;DHT22;9069;52.044;7.472;2023-05-19T12:20:30;23.50;47.00
17887;DHT22;9069;52.044;7.472;2023-05-19T12:22:59;23.50;46.90
17887;DHT22;9069;52.044;7.472;2023-05-19T12:25:27;23.50;47.00
17887;DHT22;9069;52.044;7.472;2023-05-19T12:27:59;23.40;47.00
17887;DHT22;9069;52.044;7.472;2023-05-19T12:30:27;23.40;47.20
17887;DHT22;9069;52.044;7.472;2023-05-19T12:32:55;23.40;46.90
17887;DHT22;9069;52.044;7.472;2023-05-19T12:35:30;23.40;47.00
17887;DHT22;9069;52.044;7.472;2023-05-19T12:38:07;23.40;47.20
17887;DHT22;9069;52.044;7.472;2023-05-19T12:40:35;23.40;46.90
17887;DHT22;9069;52.044;7.472;2023-05-19T12:43:04;23.40;46.90
17887;DHT22;9069;52.044;7.472;2023-05-19T12:45:35;23.30;47.10
17887;DHT22;9069;52.044;7.472;2023-05-19T12:48:12;23.30;47.20
17887;DHT22;9069;52.044;7.472;2023-05-19T12:50:43;23.30;47.70
17887;DHT22;9069;52.044;7.472;2023-05-19T12:53:13;23.30;47.70
17887;DHT22;9069;52.044;7.472;2023-05-19T12:55:42;23.30;47.40
17887;DHT22;9069;52.044;7.472;2023-05-19T12:58:10;23.30;47.10
17887;DHT22;9069;52.044;7.472;2023-05-19T13:00:43;23.30;46.90
17887;DHT22;9069;52.044;7.472;2023-05-19T13:03:20;23.20;46.80
17887;DHT22;9069;52.044;7.472;2023-05-19T13:05:49;23.20;46.80
17887;DHT22;9069;52.044;7.472;2023-05-19T13:08:18;23.10;47.00
17887;DHT22;9069;52.044;7.472;2023-05-19T13:10:46;23.10;47.30
17887;DHT22;9069;52.044;7.472;2023-05-19T13:13:13;23.10;47.60
17887;DHT22;9069;52.044;7.472;2023-05-19T13:15:44;23.10;47.50
17887;DHT22;9069;52.044;7.472;2023-05-19T13:18:12;23.00;47.60
17887;DHT22;9069;52.044;7.472;2023-05-19T13:20:40;23.00;47.60
17887;DHT22;9069;52.044;7.472;2023-05-19T13:23:09;23.00;47.20
17887;DHT22;9069;52.044;7.472;2023-05-19T13:25:36;22.90;47.40
17887;DHT22;9069;52.044;7.472;2023-05-19T13:28:03;22.90;47.60
17887;DHT22;9069;52.044;7.472;2023-05-19T13:30:34;22.90;47.90
17887;DHT22;9069;52.044;7.472;2023-05-19T13:33:03;23.00;48.20
17887;DHT22;9069;52.044;7.472;2023-05-19T13:35:30;23.00;47.80
17887;DHT22;9069;52.044;7.472;2023-05-19T13:38:04;23.00;47.60
17887;DHT22;9069;52.044;7.472;2023-05-19T13:40:31;23.00;47.50
17887;DHT22;9069;52.044;7.472;2023-05-19T13:43:04;22.90;47.20
17887;DHT22;9069;52.044;7.472;2023-05-19T13:45:31;22.90;47.40
17887;DHT22;9069;52.044;7.472;2023-05-19T13:47:58;22.90;47.80
17887;DHT22;9069;52.044;7.472;2023-05-19T13:50:25;22.90;48.00
17887;DHT22;9069;52.044;7.472;2023-05-19T13:52:51;22.90;47.70
17887;DHT22;9069;52.044;7.472;2023-05-19T13:55:19;22.90;47.50
17887;DHT22;9069;52.044;7.472;2023-05-19T13:57:46;22.90;47.60
17887;DHT22;9069;52.044;7.472;2023-05-19T14:00:13;22.80;47.50
17887;DHT22;9069;52.044;7.472;2023-05-19T14:02:40;22.80;47.50
17887;DHT22;9069;52.044;7.472;2023-05-19T14:05:08;22.80;47.70
17887;DHT22;9069;52.044;7.472;2023-05-19T14:07:34;22.70;47.70
17887;DHT22;9069;52.044;7.472;2023-05-19T14:10:02;22.70;47.90
17887;DHT22;9069;52.044;7.472;2023-05-19T14:12:31;22.70;48.10
17887;DHT22;9069;52.044;7.472;2023-05-19T14:15:13;22.80;48.00
17887;DHT22;9069;52.044;7.472;2023-05-19T14:17:40;22.80;48.10
17887;DHT22;9069;52.044;7.472;2023-05-19T14:20:07;22.80;48.20
17887;DHT22;9069;52.044;7.472;2023-05-19T14:22:35;22.80;48.20
17887;DHT22;9069;52.044;7.472;2023-05-19T14:25:01;22.70;48.00
17887;DHT22;9069;52.044;7.472;2023-05-19T14:27:28;22.70;48.00
17887;DHT22;9069;52.044;7.472;2023-05-19T14:29:55;22.70;47.90
17887;DHT22;9069;52.044;7.472;2023-05-19T14:32:22;22.70;48.00
17887;DHT22;9069;52.044;7.472;2023-05-19T14:34:48;22.80;48.10
17887;DHT22;9069;52.044;7.472;2023-05-19T14:37:18;22.80;48.00
17887;DHT22;9069;52.044;7.472;2023-05-19T14:39:45;22.80;47.90
17887;DHT22;9069;52.044;7.472;2023-05-19T14:42:12;22.80;48.10
17887;DHT22;9069;52.044;7.472;2023-05-19T14:44:39;22.70;47.60
17887;DHT22;9069;52.044;7.472;2023-05-19T14:47:05;22.80;47.40
17887;DHT22;9069;52.044;7.472;2023-05-19T14:49:33;22.70;47.50
17887;DHT22;9069;52.044;7.472;2023-05-19T14:52:00;22.70;47.40
17887;DHT22;9069;52.044;7.472;2023-05-19T14:54:26;22.70;47.50
17887;DHT22;9069;52.044;7.472;2023-05-19T14:56:53;22.60;47.70
17887;DHT22;9069;52.044;7.472;2023-05-19T14:59:20;22.60;47.60
17887;DHT22;9069;52.044;7.472;2023-05-19T15:01:47;22.60;47.50
17887;DHT22;9069;52.044;7.472;2023-05-19T15:04:14;22.60;47.50
17887;DHT22;9069;52.044;7.472;2023-05-19T15:06:41;22.70;47.40
17887;DHT22;9069;52.044;7.472;2023-05-19T15:09:07;22.70;47.50
17887;DHT22;9069;52.044;7.472;2023-05-19T15:11:34;22.60;47.30
17887;DHT22;9069;52.044;7.472;2023-05-19T15:14:01;22.60;47.30
17887;DHT22;9069;52.044;7.472;2023-05-19T15:16:28;22.60;47.20
17887;DHT22;9069;52.044;7.472;2023-05-19T15:18:55;22.60;47.50
17887;DHT22;9069;52.044;7.472;2023-05-19T15:21:22;22.50;47.40
17887;DHT22;9069;52.044;7.472;2023-05-19T15:23:49;22.40;47.40
17887;DHT22;9069;52.044;7.472;2023-05-19T15:26:15;22.40;47.80
17887;DHT22;9069;52.044;7.472;2023-05-19T15:28:42;22.40;47.90
17887;DHT22;9069;52.044;7.472;2023-05-19T15:31:09;22.40;47.70
17887;DHT22;9069;52.044;7.472;2023-05-19T15:33:36;22.40;47.30
17887;DHT22;9069;52.044;7.472;2023-05-19T15:36:03;22.40;47.10
17887;DHT22;9069;52.044;7.472;2023-05-19T15:38:33;22.40;47.40
17887;DHT22;9069;52.044;7.472;2023-05-19T15:41:05;22.40;47.30
17887;DHT22;9069;52.044;7.472;2023-05-19T15:43:32;22.40;47.40
17887;DHT22;9069;52.044;7.472;2023-05-19T15:45:59;22.40;47.40
17887;DHT22;9069;52.044;7.472;2023-05-19T15:48:26;22.30;47.40
17887;DHT22;9069;52.044;7.472;2023-05-19T15:50:54;22.30;47.50
17887;DHT22;9069;52.044;7.472;2023-05-19T15:53:24;22.20;47.20
17887;DHT22;9069;52.044;7.472;2023-05-19T15:55:50;22.20;47.00
17887;DHT22;9069;52.044;7.472;2023-05-19T15:58:17;22.20;47.30
17887;DHT22;9069;52.044;7.472;2023-05-19T16:00:44;22.20;47.60
17887;DHT22;9069;52.044;7.472;2023-05-19T16:03:11;22.20;47.30
17887;DHT22;9069;52.044;7.472;2023-05-19T16:05:38;22.20;47.20
17887;DHT22;9069;52.044;7.472;2023-05-19T16:08:05;22.20;47.10
17887;DHT22;9069;52.044;7.472;2023-05-19T16:10:34;22.20;47.50
17887;DHT22;9069;52.044;7.472;2023-05-19T16:13:01;22.20;47.30
17887;DHT22;9069;52.044;7.472;2023-05-19T16:15:28;22.20;47.20
17887;DHT22;9069;52.044;7.472;2023-05-19T16:17:54;22.20;47.00